Time;durP1;ratioP1;P1;durP2;ratioP2;P2;SDS_P1;SDS_P2;PMS_P1;PMS_P2;Temp;Humidity;BMP_temperature;BMP_pressure;BME280_temperature;BME280_humidity;BME280_pressure;Samples;Min_cycle;Max_cycle;Signal;HPM_P1;HPM_P2
2022/02/02 00:02:04;;;;;;;37.80;5.80;;;8.60;99.90;;;;;;5053749;28;20040;-69
2022/02/02 00:04:32;;;;;;;27.27;5.40;;;8.60;99.90;;;;;;5053782;28;20048;-70
2022/02/02 00:07:09;;;;;;;37.30;5.23;;;8.60;99.90;;;;;;5035947;28;20033;-70
2022/02/02 00:09:36;;;;;;;38.67;5.60;;;8.60;99.90;;;;;;5053213;28;20051;-70
2022/02/02 00:12:12;;;;;;;35.63;5.77;;;8.60;99.90;;;;;;5053369;28;20489;-70
2022/02/02 00:17:34;;;;;;;39.67;6.90;;;8.60;99.90;;;;;;5053171;28;20108;-69
2022/02/02 00:22:37;;;;;;;36.27;5.07;;;8.50;99.90;;;;;;5053956;28;20083;-70
2022/02/02 00:25:28;;;;;;;47.67;6.13;;;8.50;99.90;;;;;;5053279;28;20082;-69
2022/02/02 00:27:57;;;;;;;37.72;5.15;;;8.50;99.90;;;;;;5034795;28;20029;-69
2022/02/02 00:30:27;;;;;;;34.47;5.30;;;8.50;99.90;;;;;;5035501;28;20433;-70
2022/02/02 00:33:17;;;;;;;44.23;5.90;;;8.50;99.90;;;;;;5035224;28;20154;-69
2022/02/02 00:35:53;;;;;;;37.97;5.03;;;8.50;99.90;;;;;;5053285;28;20021;-70
2022/02/02 00:38:19;;;;;;;32.40;5.67;;;8.40;99.90;;;;;;5052960;28;20029;-70
2022/02/02 00:40:45;;;;;;;29.53;4.43;;;8.40;99.90;;;;;;5053003;28;20115;-70
2022/02/02 00:43:11;;;;;;;40.73;6.30;;;8.40;99.90;;;;;;5052965;28;20101;-70
2022/02/02 00:45:43;;;;;;;36.73;5.53;;;8.40;99.90;;;;;;5052736;28;20539;-69
2022/02/02 00:48:11;;;;;;;26.60;4.80;;;8.30;99.90;;;;;;5052742;28;20079;-70
2022/02/02 00:50:37;;;;;;;32.37;5.87;;;8.30;99.90;;;;;;5052724;28;20028;-69
2022/02/02 00:53:03;;;;;;;33.83;5.13;;;8.30;99.90;;;;;;5052727;28;20074;-70
2022/02/02 00:55:30;;;;;;;30.43;5.03;;;8.30;99.90;;;;;;5034741;28;20467;-70
2022/02/02 00:57:56;;;;;;;31.70;5.77;;;8.30;99.90;;;;;;5052955;28;20036;-70
2022/02/02 01:00:21;;;;;;;39.27;5.90;;;8.30;99.90;;;;;;5052667;28;20400;-70
2022/02/02 01:02:47;;;;;;;34.63;5.83;;;8.20;99.90;;;;;;5052406;28;20029;-69
2022/02/02 01:05:14;;;;;;;38.73;5.80;;;8.20;99.90;;;;;;5052264;28;20511;-69
2022/02/02 01:13:58;;;;;;;37.00;6.87;;;8.10;99.90;;;;;;5047352;28;20127;-69
2022/02/02 01:22:03;;;;;;;50.67;9.67;;;8.10;99.90;;;;;;5052207;28;20060;-69
2022/02/02 01:30:04;;;;;;;40.13;6.47;;;8.20;99.90;;;;;;5052034;28;20127;-69
2022/02/02 01:32:30;;;;;;;36.63;6.07;;;8.20;99.90;;;;;;5034264;28;20477;-70
2022/02/02 01:34:55;;;;;;;37.70;5.53;;;8.20;99.90;;;;;;5051702;28;20032;-69
2022/02/02 01:37:22;;;;;;;40.97;6.47;;;8.20;99.90;;;;;;5051629;28;20040;-70
2022/02/02 01:39:54;;;;;;;34.83;5.70;;;8.20;99.90;;;;;;5051622;28;20397;-70
2022/02/02 01:42:21;;;;;;;39.03;6.70;;;8.20;99.90;;;;;;5051715;28;20378;-69
2022/02/02 01:45:02;;;;;;;37.37;6.13;;;8.20;99.90;;;;;;5051595;28;20029;-69
2022/02/02 01:47:35;;;;;;;32.97;6.40;;;8.20;99.90;;;;;;5033966;28;20388;-70
2022/02/02 01:55:03;;;;;;;38.00;6.03;;;8.20;99.90;;;;;;5051518;28;20032;-69
2022/02/02 02:00:07;;;;;;;37.90;5.53;;;8.20;99.90;;;;;;5051743;28;20071;-69
2022/02/02 02:02:35;;;;;;;37.00;6.03;;;8.30;99.90;;;;;;5033829;28;20036;-70
2022/02/02 02:05:05;;;;;;;39.93;5.37;;;8.30;99.90;;;;;;5051529;28;20453;-70
2022/02/02 02:07:32;;;;;;;44.83;6.43;;;8.20;99.90;;;;;;5051628;28;20025;-70
2022/02/02 02:09:59;;;;;;;34.80;5.37;;;8.20;99.90;;;;;;5051314;28;20132;-69
2022/02/02 02:12:45;;;;;;;40.07;5.87;;;8.30;99.90;;;;;;5051344;28;20123;-69
2022/02/02 02:15:13;;;;;;;36.77;6.30;;;8.30;99.90;;;;;;5051127;28;20413;-70
2022/02/02 02:17:39;;;;;;;43.27;6.63;;;8.30;99.90;;;;;;5051391;28;20099;-70
2022/02/02 02:20:06;;;;;;;46.80;7.93;;;8.30;99.90;;;;;;5051413;28;20060;-69
2022/02/02 02:22:36;;;;;;;39.27;6.40;;;8.20;99.90;;;;;;5051316;28;20029;-70
2022/02/02 02:25:03;;;;;;;34.03;5.70;;;8.20;99.90;;;;;;5033327;28;20028;-69
2022/02/02 02:27:29;;;;;;;38.80;5.77;;;8.30;99.90;;;;;;5051068;28;20036;-70
2022/02/02 02:33:01;;;;;;;37.80;6.23;;;8.30;99.90;;;;;;5054989;28;20025;-70
2022/02/02 02:57:14;;;;;;;40.23;6.67;;;8.10;99.90;;;;;;5054889;28;20035;-70
2022/02/02 03:30:03;;;;;;;43.87;5.77;;;8.00;99.90;;;;;;5053968;28;20033;-70
2022/02/02 04:06:55;;;;;;;46.10;6.83;;;8.00;99.90;;;;;;5053754;28;20037;-70
2022/02/02 04:09:21;;;;;;;38.40;6.33;;;8.00;99.90;;;;;;5053440;28;20021;-70
2022/02/02 04:12:37;;;;;;;40.07;6.43;;;7.90;99.90;;;;;;5053346;28;20029;-70
2022/02/02 05:03:39;;;;;;;32.40;6.07;;;8.00;99.90;;;;;;5030161;28;20042;-70
2022/02/02 05:06:03;;;;;;;32.73;5.17;;;8.00;99.90;;;;;;5051961;28;20033;-70
2022/02/02 05:11:24;;;;;;;31.90;5.67;;;7.90;99.90;;;;;;5052371;28;20033;-70
2022/02/02 05:22:29;;;;;;;37.40;5.90;;;8.00;99.90;;;;;;5052098;28;20036;-71
2022/02/02 05:25:40;;;;;;;41.40;6.13;;;8.10;99.90;;;;;;5034094;28;20402;-70
2022/02/02 05:41:55;;;;;;;34.63;5.97;;;8.10;99.90;;;;;;5051968;28;20040;-69
2022/02/02 05:44:32;;;;;;;34.13;6.23;;;8.10;99.90;;;;;;5051519;28;20055;-70
2022/02/02 05:52:18;;;;;;;22.10;3.50;;;7.80;99.90;;;;;;5033480;28;20029;-85
2022/02/02 05:54:44;;;;;;;15.50;3.03;;;7.70;99.90;;;;;;5050821;28;20112;-85
2022/02/02 05:57:13;;;;;;;20.23;4.07;;;7.50;99.90;;;;;;5033534;28;20029;-85
2022/02/02 05:59:41;;;;;;;17.73;3.53;;;7.50;99.90;;;;;;5051075;28;20477;-85
2022/02/02 06:02:11;;;;;;;18.10;3.27;;;7.40;99.90;;;;;;5051130;28;20485;-84
2022/02/02 06:04:46;;;;;;;15.67;3.93;;;7.40;99.90;;;;;;5051239;28;20025;-85
2022/02/02 06:07:14;;;;;;;26.57;4.70;;;7.40;99.90;;;;;;5032987;28;20040;-85
2022/02/02 06:09:44;;;;;;;24.10;4.07;;;7.30;99.90;;;;;;5050931;28;20041;-85
2022/02/02 06:12:10;;;;;;;25.00;4.40;;;7.40;99.90;;;;;;5033254;28;20365;-85
2022/02/02 06:14:39;;;;;;;27.50;5.23;;;7.40;99.90;;;;;;5050696;28;20041;-85
2022/02/02 06:17:07;;;;;;;28.20;4.60;;;7.40;99.90;;;;;;5033368;28;20055;-85
2022/02/02 06:19:33;;;;;;;36.30;5.53;;;7.40;99.90;;;;;;5033147;28;20120;-85
2022/02/02 06:22:05;;;;;;;30.47;5.27;;;7.40;99.90;;;;;;5051171;28;20108;-85
2022/02/02 06:24:33;;;;;;;43.27;5.93;;;7.40;99.90;;;;;;5050979;28;20428;-85
2022/02/02 06:27:09;;;;;;;34.87;5.17;;;7.40;99.90;;;;;;5051534;28;20048;-85
2022/02/02 06:29:40;;;;;;;42.00;6.43;;;7.50;99.90;;;;;;5050797;28;20108;-86
2022/02/02 06:32:11;;;;;;;38.93;5.70;;;7.60;99.90;;;;;;5050923;28;20033;-86
2022/02/02 06:34:43;;;;;;;34.23;6.13;;;7.70;99.90;;;;;;5050741;28;20428;-86
2022/02/02 06:37:11;;;;;;;38.20;5.53;;;7.70;99.90;;;;;;5051264;28;20487;-86
2022/02/02 06:39:40;;;;;;;40.90;6.00;;;7.70;99.90;;;;;;5032719;28;20052;-84
2022/02/02 06:42:10;;;;;;;32.80;5.38;;;7.80;99.90;;;;;;5050853;28;20033;-85
2022/02/02 06:44:43;;;;;;;43.43;6.97;;;7.80;99.90;;;;;;5050886;28;20036;-85
2022/02/02 06:47:09;;;;;;;31.63;5.87;;;7.80;99.90;;;;;;5032931;28;20039;-85
2022/02/02 06:49:36;;;;;;;44.40;7.87;;;7.70;99.90;;;;;;5050407;28;20029;-85
2022/02/02 06:52:12;;;;;;;36.50;5.20;;;7.80;99.90;;;;;;5050689;28;20029;-85
2022/02/02 06:55:09;;;;;;;36.13;6.67;;;7.80;99.90;;;;;;5050436;28;20025;-85
2022/02/02 06:58:09;;;;;;;31.57;6.23;;;7.90;99.90;;;;;;5050778;28;20029;-85
2022/02/02 07:06:18;;;;;;;39.63;7.80;;;7.80;99.90;;;;;;5050584;28;20025;-85
2022/02/02 07:09:14;;;;;;;55.90;11.33;;;7.70;99.90;;;;;;5050738;28;20040;-85
2022/02/02 07:14:35;;;;;;;36.47;7.40;;;7.70;99.90;;;;;;5050277;28;20035;-85
2022/02/02 07:17:35;;;;;;;38.75;6.63;;;7.80;99.90;;;;;;5050406;28;20021;-85
2022/02/02 07:20:20;;;;;;;43.42;6.88;;;7.80;99.90;;;;;;5036034;28;20033;-85
2022/02/02 07:27:52;;;;;;;42.77;6.87;;;7.90;99.90;;;;;;5036570;28;20142;-85
2022/02/02 07:32:54;;;;;;;39.33;6.60;;;7.90;99.90;;;;;;5035811;28;20087;-85
2022/02/02 07:35:31;;;;;;;37.90;6.17;;;7.80;99.90;;;;;;5053681;28;20029;-85
2022/02/02 07:37:59;;;;;;;39.13;5.63;;;7.90;99.90;;;;;;5053704;28;20064;-85
2022/02/02 07:40:26;;;;;;;35.93;5.93;;;7.90;99.90;;;;;;5053534;28;20025;-86
2022/02/02 07:42:55;;;;;;;35.77;6.53;;;7.90;99.90;;;;;;5053702;28;20485;-85
2022/02/02 07:45:23;;;;;;;40.42;6.60;;;7.90;99.90;;;;;;5053401;28;20542;-85
2022/02/02 07:48:03;;;;;;;40.37;6.03;;;7.90;99.90;;;;;;5053538;28;20033;-85
2022/02/02 07:50:34;;;;;;;40.20;7.23;;;8.00;99.90;;;;;;5035717;28;20024;-85
2022/02/02 07:53:08;;;;;;;34.97;5.90;;;7.90;99.90;;;;;;5036005;28;20021;-85
2022/02/02 07:55:36;;;;;;;33.83;5.87;;;7.90;99.90;;;;;;5053237;28;20020;-85
2022/02/02 07:58:03;;;;;;;41.63;6.40;;;8.00;99.90;;;;;;5053564;28;20030;-85
2022/02/02 08:00:31;;;;;;;41.37;6.90;;;8.00;99.90;;;;;;5053210;28;20031;-84
2022/02/02 08:03:07;;;;;;;46.00;7.70;;;7.90;99.90;;;;;;5039206;28;20029;-86
2022/02/02 08:05:46;;;;;;;41.53;6.13;;;7.90;99.90;;;;;;5052106;28;20561;-83
2022/02/02 08:08:26;;;;;;;35.30;6.07;;;7.90;99.90;;;;;;5051062;28;20416;-83
2022/02/02 08:10:55;;;;;;;52.90;10.83;;;7.90;99.90;;;;;;5052886;28;20531;-81
2022/02/02 08:16:22;;;;;;;41.03;6.90;;;7.90;99.90;;;;;;5044228;28;20477;-93
2022/02/02 08:18:50;;;;;;;36.40;6.33;;;8.00;99.90;;;;;;5034499;28;20033;-87
2022/02/02 08:21:16;;;;;;;33.22;5.95;;;8.00;99.90;;;;;;5051779;28;20028;-87
2022/02/02 08:23:43;;;;;;;40.87;6.63;;;8.00;99.90;;;;;;5051322;28;20044;-87
2022/02/02 08:26:15;;;;;;;30.30;5.90;;;8.00;99.90;;;;;;5051309;28;20033;-87
2022/02/02 08:28:42;;;;;;;28.97;5.50;;;7.90;99.90;;;;;;5050904;28;20093;-87
2022/02/02 08:31:08;;;;;;;44.83;6.37;;;8.10;99.90;;;;;;5033351;28;20513;-87
2022/02/02 08:33:38;;;;;;;40.67;5.87;;;8.10;99.90;;;;;;5050943;28;20389;-87
2022/02/02 08:36:08;;;;;;;38.60;5.70;;;8.10;99.90;;;;;;5052073;28;20024;-87
2022/02/02 08:41:14;;;;;;;36.27;6.40;;;8.10;99.90;;;;;;5052438;28;20036;-87
2022/02/02 08:43:57;;;;;;;39.80;6.70;;;8.10;99.90;;;;;;5034374;28;20029;-87
2022/02/02 08:46:34;;;;;;;34.43;6.23;;;8.10;99.90;;;;;;5052552;28;20397;-87
2022/02/02 08:49:04;;;;;;;34.33;5.33;;;8.10;99.90;;;;;;5052212;28;20033;-87
2022/02/02 08:51:35;;;;;;;45.13;6.90;;;8.20;99.90;;;;;;5052811;28;20064;-88
2022/02/02 09:01:53;;;;;;;36.95;5.57;;;8.10;99.90;;;;;;4998989;28;20044;-87
2022/02/02 09:07:11;;;;;;;35.00;6.10;;;8.30;99.90;;;;;;5026114;28;20520;-87
2022/02/02 09:09:55;;;;;;;40.07;8.33;;;8.20;99.90;;;;;;5051905;28;20036;-87
2022/02/02 09:36:24;;;;;;;32.83;4.72;;;8.30;99.90;;;;;;5033659;28;20519;-87
2022/02/02 09:38:54;;;;;;;30.08;4.97;;;8.30;99.90;;;;;;5051570;28;20033;-88
2022/02/02 09:43:57;;;;;;;32.20;6.37;;;8.30;99.90;;;;;;5051345;28;20040;-87
2022/02/02 09:46:28;;;;;;;43.47;7.40;;;8.30;99.90;;;;;;5034952;28;20068;-86
2022/02/02 09:48:58;;;;;;;38.47;8.60;;;8.30;99.90;;;;;;5049538;28;20121;-87
2022/02/02 09:51:31;;;;;;;41.30;6.23;;;8.30;99.90;;;;;;5050173;28;20029;-85
2022/02/02 10:01:46;;;;;;;35.17;6.60;;;8.50;99.90;;;;;;5050586;28;20040;-82
2022/02/02 10:04:35;;;;;;;36.73;6.70;;;8.40;99.90;;;;;;5033185;28;20033;-85
2022/02/02 10:15:25;;;;;;;41.30;6.63;;;8.50;99.90;;;;;;5050512;28;20059;-84
2022/02/02 10:17:58;;;;;;;;;;;8.50;99.90;;;;;;5050930;28;20108;-84
2022/02/02 10:20:27;;;;;;;32.53;6.13;;;8.50;99.90;;;;;;5051116;28;19908;-84
2022/02/02 10:22:59;;;;;;;38.40;7.45;;;8.50;99.90;;;;;;5051300;28;20108;-84
2022/02/02 10:25:29;;;;;;;37.50;5.67;;;8.40;99.90;;;;;;5033396;28;20029;-84
2022/02/02 10:28:09;;;;;;;48.57;6.57;;;8.50;99.90;;;;;;5050949;28;20408;-84
2022/02/02 10:30:35;;;;;;;40.10;5.60;;;8.60;99.90;;;;;;5032874;28;20025;-83
2022/02/02 10:33:04;;;;;;;40.37;6.87;;;8.60;99.90;;;;;;5050019;28;20029;-83
2022/02/02 10:35:42;;;;;;;37.45;6.72;;;8.70;99.90;;;;;;5049472;28;20033;-85
2022/02/02 10:38:14;;;;;;;40.10;6.07;;;8.70;99.90;;;;;;5032196;28;20040;-85
2022/02/02 10:43:36;;;;;;;39.17;6.10;;;8.80;99.90;;;;;;5049754;28;20082;-83
2022/02/02 10:46:22;;;;;;;38.53;5.93;;;8.80;99.90;;;;;;5050889;28;20033;-85
2022/02/02 10:48:55;;;;;;;38.90;5.93;;;8.80;99.90;;;;;;5049362;28;20037;-93
2022/02/02 10:51:35;;;;;;;41.93;7.03;;;8.80;99.90;;;;;;5049663;28;20029;-87
2022/02/02 10:54:27;;;;;;;41.77;6.13;;;8.90;99.90;;;;;;5052829;28;20032;-87
2022/02/02 10:57:17;;;;;;;34.13;5.83;;;8.90;99.90;;;;;;5034807;28;20063;-85
2022/02/02 11:00:00;;;;;;;31.00;5.60;;;8.90;99.90;;;;;;5052393;28;20060;-81
2022/02/02 11:07:56;;;;;;;31.47;5.50;;;8.80;99.90;;;;;;5053265;28;20052;-80
2022/02/02 11:10:28;;;;;;;33.33;5.53;;;8.90;99.90;;;;;;5052459;28;20444;-90
2022/02/02 11:13:11;;;;;;;35.83;5.77;;;8.90;99.90;;;;;;5021315;28;20029;-83
2022/02/02 11:15:55;;;;;;;30.90;5.00;;;8.90;99.90;;;;;;5035007;28;20485;-84
2022/02/02 11:18:37;;;;;;;25.63;4.70;;;8.90;99.90;;;;;;5053486;28;20029;-83
2022/02/02 11:21:12;;;;;;;46.20;5.93;;;8.90;99.90;;;;;;5053615;28;20033;-84
2022/02/02 11:23:48;;;;;;;37.40;6.10;;;8.90;99.90;;;;;;5035477;28;20068;-86
2022/02/02 11:26:49;;;;;;;37.80;5.80;;;8.90;99.90;;;;;;5054670;28;20538;-86
2022/02/02 11:29:47;;;;;;;28.60;5.73;;;8.80;99.90;;;;;;4990667;28;20113;-86
2022/02/02 11:32:14;;;;;;;37.57;5.97;;;8.80;99.90;;;;;;5017927;28;20052;-88
2022/02/02 11:34:40;;;;;;;41.87;7.17;;;8.90;99.90;;;;;;5051860;28;20025;-86
2022/02/02 11:37:08;;;;;;;31.27;6.13;;;8.90;99.90;;;;;;5051657;28;20527;-87
2022/02/02 11:40:02;;;;;;;41.10;6.20;;;8.90;99.90;;;;;;5033980;28;20040;-87
2022/02/02 11:45:42;;;;;;;29.70;5.07;;;9.10;99.90;;;;;;5051568;28;20037;-83
2022/02/02 11:48:16;;;;;;;33.93;5.67;;;9.30;99.90;;;;;;5035249;28;20538;-83
2022/02/02 11:50:55;;;;;;;32.73;6.00;;;9.50;99.90;;;;;;5052983;28;20087;-83
2022/02/02 11:53:48;;;;;;;33.08;6.57;;;9.50;99.90;;;;;;5035152;28;20033;-89
2022/02/02 11:56:15;;;;;;;34.83;6.13;;;9.60;99.90;;;;;;5051930;28;20036;-88
2022/02/02 11:58:42;;;;;;;41.60;6.53;;;9.60;99.90;;;;;;5034632;28;20040;-89
2022/02/02 12:01:23;;;;;;;35.20;6.57;;;9.50;99.90;;;;;;5034472;28;20033;-88
2022/02/02 12:06:39;;;;;;;37.87;6.07;;;9.50;99.90;;;;;;5053070;28;20036;-89
2022/02/02 12:48:59;;;;;;;23.50;4.70;;;9.70;99.90;;;;;;5052091;28;20044;-88
2022/02/02 12:54:56;;;;;;;29.53;5.27;;;9.80;99.90;;;;;;5051737;28;20078;-87
2022/02/02 12:57:04;;;;;;;28.17;4.63;;;9.70;99.90;;;;;;5051446;28;20072;-88
2022/02/02 13:02:16;;;;;;;28.27;4.83;;;9.90;99.90;;;;;;5051943;28;20093;-88
2022/02/02 13:04:44;;;;;;;27.93;5.27;;;10.00;99.90;;;;;;5051780;28;20052;-88
2022/02/02 13:07:17;;;;;;;21.57;4.77;;;9.90;99.90;;;;;;5051667;28;20036;-88
2022/02/02 13:09:50;;;;;;;25.23;4.80;;;9.90;99.90;;;;;;5051599;28;20098;-87
2022/02/02 13:12:32;;;;;;;23.73;3.93;;;9.80;99.90;;;;;;5051976;28;20025;-88
2022/02/02 13:18:05;;;;;;;22.17;4.33;;;9.80;99.90;;;;;;5033605;28;20427;-87
2022/02/02 13:21:05;;;;;;;24.03;4.40;;;9.70;99.90;;;;;;5051559;28;20029;-87
2022/02/02 13:26:40;;;;;;;25.73;4.87;;;9.60;99.90;;;;;;5051454;28;20049;-88
2022/02/02 13:29:15;;;;;;;20.10;4.00;;;9.50;99.90;;;;;;5051469;28;20099;-87
2022/02/02 13:31:58;;;;;;;28.27;5.27;;;9.40;99.90;;;;;;5051270;28;20524;-88
2022/02/02 13:37:49;;;;;;;30.77;5.90;;;9.50;99.90;;;;;;5051181;28;20072;-87
2022/02/02 14:04:37;;;;;;;26.63;4.03;;;9.80;99.90;;;;;;5050703;28;20039;-87
2022/02/02 14:07:09;;;;;;;23.77;4.33;;;9.70;99.90;;;;;;5048904;28;20051;-87
2022/02/02 14:09:57;;;;;;;26.07;5.27;;;9.70;99.90;;;;;;5049557;28;20444;-87
2022/02/02 14:31:23;;;;;;;25.80;6.63;;;10.10;99.90;;;;;;5055031;28;20612;-87
2022/02/02 14:33:53;;;;;;;20.57;4.57;;;10.10;99.90;;;;;;5055096;28;20108;-87
2022/02/02 14:36:23;;;;;;;23.67;4.07;;;10.10;99.90;;;;;;5055269;28;20032;-87
2022/02/02 14:38:59;;;;;;;24.57;4.50;;;10.10;99.90;;;;;;5055203;28;20509;-87
2022/02/02 14:41:38;;;;;;;26.43;5.50;;;10.10;99.90;;;;;;5054707;28;20107;-87
2022/02/02 14:46:45;;;;;;;23.37;4.57;;;10.10;99.90;;;;;;5036703;28;20448;-86
2022/02/02 14:49:17;;;;;;;23.93;5.63;;;10.10;99.90;;;;;;5054603;28;20125;-87
2022/02/02 15:28:01;;;;;;;25.23;3.70;;;9.80;99.90;;;;;;5035433;28;20042;-87
2022/02/02 15:31:03;;;;;;;16.70;3.70;;;9.80;99.90;;;;;;5053551;28;20064;-87
2022/02/02 15:33:25;;;;;;;17.30;3.77;;;9.70;99.90;;;;;;5051034;28;20116;-87
2022/02/02 15:36:03;;;;;;;21.03;3.90;;;9.80;99.90;;;;;;5035816;28;20115;-87
2022/02/02 15:38:29;;;;;;;17.87;3.63;;;9.70;99.90;;;;;;5052664;28;20582;-88
2022/02/02 15:41:02;;;;;;;23.90;4.10;;;9.70;99.90;;;;;;5053666;28;20033;-87
2022/02/02 16:00:38;;;;;;;26.40;5.80;;;9.60;99.90;;;;;;5052956;28;20385;-86
2022/02/02 16:02:16;;;;;;;25.30;6.10;;;9.60;99.90;;;;;;5041976;28;20072;-87
2022/02/02 16:04:42;;;;;;;21.27;5.38;;;9.50;99.90;;;;;;5052879;28;20556;-87
2022/02/02 16:07:11;;;;;;;23.73;5.23;;;9.60;99.90;;;;;;5053129;28;20513;-87
2022/02/02 16:09:46;;;;;;;23.23;5.38;;;9.60;99.90;;;;;;5034932;28;20044;-87
2022/02/02 16:12:21;;;;;;;24.73;4.83;;;9.60;99.90;;;;;;5035144;28;20032;-86
2022/02/02 16:14:53;;;;;;;25.40;5.33;;;9.50;99.90;;;;;;5052605;28;20441;-86
2022/02/02 16:31:32;;;;;;;24.53;5.10;;;9.40;99.90;;;;;;5051244;28;20052;-87
2022/02/02 16:34:35;;;;;;;25.03;5.30;;;9.20;99.90;;;;;;5052032;28;20396;-87
2022/02/02 16:44:09;;;;;;;29.20;5.83;;;9.10;99.90;;;;;;5051998;28;20033;-87
2022/02/02 16:46:37;;;;;;;29.07;6.97;;;9.10;99.90;;;;;;5052081;28;20032;-87
2022/02/02 16:49:03;;;;;;;32.20;6.90;;;9.10;99.90;;;;;;5052015;28;20036;-87
2022/02/02 16:51:29;;;;;;;34.70;7.60;;;9.20;99.90;;;;;;5034218;28;20123;-87
2022/02/02 16:53:58;;;;;;;29.07;7.07;;;9.10;99.90;;;;;;5052140;28;20025;-87
2022/02/02 17:31:46;;;;;;;24.03;4.63;;;8.60;99.90;;;;;;5051334;28;20064;-86
2022/02/02 17:34:40;;;;;;;21.77;4.60;;;8.70;99.90;;;;;;5051048;28;20032;-86
2022/02/02 17:38:03;;;;;;;20.03;4.50;;;8.60;99.90;;;;;;5050733;28;20095;-86
2022/02/02 17:45:04;;;;;;;23.10;6.27;;;8.50;99.90;;;;;;5050988;28;20378;-86
2022/02/02 18:12:16;;;;;;;19.23;4.43;;;8.20;99.90;;;;;;5011339;28;20429;-67
2022/02/02 18:22:58;;;;;;;23.70;5.37;;;7.90;99.90;;;;;;5011243;28;20343;-69
2022/02/02 18:25:44;;;;;;;24.30;6.40;;;7.90;99.90;;;;;;5011192;28;20073;-70
2022/02/02 18:28:43;;;;;;;27.97;6.30;;;7.80;99.90;;;;;;4993517;28;20057;-69
2022/02/02 18:31:14;;;;;;;22.90;5.33;;;7.80;99.90;;;;;;5010691;28;20052;-69
2022/02/02 18:49:20;;;;;;;24.00;6.25;;;7.60;99.90;;;;;;5010868;28;20033;-70
2022/02/02 19:02:11;;;;;;;35.80;8.97;;;7.50;99.90;;;;;;5010792;28;20026;-69
2022/02/02 20:08:17;;;;;;;20.83;6.83;;;7.70;99.90;;;;;;5013420;28;20034;-70
2022/02/02 20:10:59;;;;;;;36.10;11.80;;;7.70;99.90;;;;;;5013413;28;20038;-70
2022/02/02 20:13:25;;;;;;;34.47;11.23;;;7.70;99.90;;;;;;5013099;28;20034;-70
2022/02/02 20:15:51;;;;;;;50.93;11.07;;;7.70;99.90;;;;;;5013301;28;20077;-70
2022/02/02 20:18:17;;;;;;;30.37;10.07;;;7.70;99.90;;;;;;5013096;28;20025;-70
2022/02/02 20:20:45;;;;;;;27.00;9.57;;;7.80;99.90;;;;;;5013207;28;20297;-70
2022/02/02 20:23:12;;;;;;;31.17;10.27;;;7.80;99.90;;;;;;4995424;28;20056;-70
2022/02/02 20:25:46;;;;;;;28.83;8.23;;;7.80;99.90;;;;;;5012635;28;20026;-70
2022/02/02 20:28:12;;;;;;;24.67;7.80;;;7.80;99.90;;;;;;5013131;28;20030;-70
2022/02/02 20:30:38;;;;;;;29.50;9.77;;;7.90;99.90;;;;;;5012941;28;20479;-70
2022/02/02 20:33:05;;;;;;;38.63;9.87;;;7.90;99.90;;;;;;5013149;28;20026;-70
2022/02/02 20:35:32;;;;;;;25.93;8.83;;;7.90;99.90;;;;;;5012735;28;20538;-70
2022/02/02 20:37:58;;;;;;;30.63;10.53;;;7.90;99.90;;;;;;4995158;28;20034;-70
2022/02/02 20:40:26;;;;;;;32.80;10.60;;;8.00;99.90;;;;;;5012769;28;20113;-70
2022/02/02 20:43:14;;;;;;;31.10;11.50;;;8.00;99.90;;;;;;5012647;28;20072;-70
2022/02/02 21:04:30;;;;;;;41.08;15.52;;;8.20;99.90;;;;;;5012287;28;20114;-70
2022/02/02 21:10:02;;;;;;;32.47;14.73;;;8.20;99.90;;;;;;5012384;28;20030;-70
2022/02/02 21:15:17;;;;;;;36.27;16.37;;;8.30;99.90;;;;;;5010604;28;20124;-70
2022/02/02 21:17:43;;;;;;;32.33;16.20;;;8.30;99.90;;;;;;5012027;28;20030;-70
2022/02/02 21:20:20;;;;;;;32.53;15.63;;;8.30;99.90;;;;;;5012119;28;20503;-70
2022/02/02 21:22:50;;;;;;;34.10;16.20;;;8.30;99.90;;;;;;5012048;28;20521;-70
2022/02/02 21:25:34;;;;;;;33.30;17.10;;;8.30;99.90;;;;;;5012071;28;20060;-69
2022/02/02 21:28:02;;;;;;;38.00;17.97;;;8.30;99.90;;;;;;5011992;28;20034;-70
2022/02/02 21:30:32;;;;;;;43.75;19.75;;;8.40;99.90;;;;;;5011809;28;20068;-70
2022/02/02 21:32:59;;;;;;;32.30;16.70;;;8.40;99.90;;;;;;5011871;28;20076;-70
2022/02/02 21:35:26;;;;;;;40.77;18.47;;;8.40;99.90;;;;;;5010439;28;20213;-70
2022/02/02 21:38:00;;;;;;;32.93;16.80;;;8.40;99.90;;;;;;5009733;28;20067;-70
2022/02/02 21:40:28;;;;;;;37.83;19.73;;;8.40;99.90;;;;;;4994258;28;20080;-70
2022/02/02 21:42:55;;;;;;;35.03;18.20;;;8.40;99.90;;;;;;5011657;28;20037;-70
2022/02/02 21:45:22;;;;;;;36.97;19.40;;;8.40;99.90;;;;;;5011529;28;20171;-70
2022/02/02 21:47:50;;;;;;;36.50;17.50;;;8.50;99.90;;;;;;5011515;28;20034;-70
2022/02/02 21:50:19;;;;;;;37.17;17.57;;;8.50;99.90;;;;;;5011469;28;20034;-70
2022/02/02 21:52:46;;;;;;;36.73;17.07;;;8.50;99.90;;;;;;4993976;28;20054;-70
2022/02/02 21:55:14;;;;;;;34.13;17.37;;;8.40;99.90;;;;;;5011166;28;20072;-70
2022/02/02 21:57:40;;;;;;;31.83;15.93;;;8.40;99.90;;;;;;5011666;28;20029;-70
2022/02/02 22:00:09;;;;;;;32.73;16.80;;;8.50;99.90;;;;;;5011367;28;20025;-70
2022/02/02 22:02:42;;;;;;;33.50;16.93;;;8.40;99.90;;;;;;5011522;28;20123;-70
2022/02/02 22:05:08;;;;;;;36.63;16.73;;;8.50;99.90;;;;;;5011180;28;20160;-70
2022/02/02 22:07:34;;;;;;;34.37;16.33;;;8.40;99.90;;;;;;5011494;28;20076;-70
2022/02/02 22:10:04;;;;;;;33.30;17.30;;;8.50;99.90;;;;;;5011533;28;20061;-70
2022/02/02 22:12:33;;;;;;;33.60;16.37;;;8.40;99.90;;;;;;5011618;28;20033;-70
2022/02/02 22:14:59;;;;;;;32.78;16.67;;;8.40;99.90;;;;;;5011031;28;20029;-70
2022/02/02 22:17:25;;;;;;;30.87;15.23;;;8.40;99.90;;;;;;5011086;28;20034;-70
2022/02/02 22:19:55;;;;;;;36.07;17.03;;;8.40;99.90;;;;;;5011265;28;20033;-70
2022/02/02 22:22:21;;;;;;;;;;;8.40;99.90;;;;;;5011736;28;20117;-70
2022/02/02 22:24:47;;;;;;;33.73;16.73;;;8.50;99.90;;;;;;5010994;28;19952;-70
2022/02/02 22:27:13;;;;;;;33.33;17.33;;;8.40;99.90;;;;;;5011055;28;20328;-70
2022/02/02 22:29:39;;;;;;;33.47;17.87;;;8.40;99.90;;;;;;5011400;28;20030;-70
2022/02/02 22:32:06;;;;;;;34.70;17.60;;;8.50;99.90;;;;;;5011188;28;20110;-70
2022/02/02 22:34:31;;;;;;;32.73;17.20;;;8.50;99.90;;;;;;4993499;28;20026;-70
2022/02/02 22:36:57;;;;;;;35.77;19.87;;;8.50;99.90;;;;;;5011301;28;20549;-70
2022/02/02 22:39:24;;;;;;;35.73;18.33;;;8.50;99.90;;;;;;5011377;28;20105;-70
2022/02/02 22:41:50;;;;;;;40.27;20.97;;;8.50;99.90;;;;;;5010994;28;20053;-70
2022/02/02 22:44:17;;;;;;;41.63;20.93;;;8.50;99.90;;;;;;5010652;28;20064;-70
2022/02/02 22:46:44;;;;;;;41.37;20.50;;;8.50;99.90;;;;;;5011032;28;20042;-70
2022/02/02 22:49:10;;;;;;;42.83;21.37;;;8.50;99.90;;;;;;5013816;28;20088;-70
2022/02/02 22:51:36;;;;;;;44.30;21.67;;;8.50;99.90;;;;;;5014811;28;20057;-70
2022/02/02 22:54:03;;;;;;;44.33;21.03;;;8.50;99.90;;;;;;5014999;28;20497;-70
2022/02/02 22:56:30;;;;;;;44.90;22.00;;;8.50;99.90;;;;;;5015054;28;20436;-70
2022/02/02 22:58:58;;;;;;;45.90;22.27;;;8.50;99.90;;;;;;5014780;28;20037;-70
2022/02/02 23:01:27;;;;;;;47.57;23.00;;;8.60;99.90;;;;;;5014626;28;20069;-70
2022/02/02 23:03:54;;;;;;;47.70;23.63;;;8.60;99.90;;;;;;5014355;28;20454;-70
2022/02/02 23:06:20;;;;;;;56.03;24.70;;;8.60;99.90;;;;;;5014457;28;20036;-70
2022/02/02 23:08:46;;;;;;;53.23;25.03;;;8.60;99.90;;;;;;5014355;28;20034;-70
2022/02/02 23:11:13;;;;;;;52.67;24.83;;;8.70;99.90;;;;;;5014610;28;20442;-70
2022/02/02 23:13:41;;;;;;;55.37;25.30;;;8.70;99.90;;;;;;5014346;28;20056;-70
2022/02/02 23:16:12;;;;;;;51.93;24.13;;;8.70;99.90;;;;;;5013106;28;20052;-70
2022/02/02 23:18:39;;;;;;;49.20;24.33;;;8.70;99.90;;;;;;5014275;28;20026;-70
2022/02/02 23:21:10;;;;;;;48.30;23.60;;;8.60;99.90;;;;;;5014283;28;20446;-70
2022/02/02 23:23:47;;;;;;;57.10;25.10;;;8.70;99.90;;;;;;5012767;28;20022;-70
2022/02/02 23:26:14;;;;;;;54.13;26.17;;;8.70;99.90;;;;;;5014429;28;20073;-70
2022/02/02 23:28:48;;;;;;;50.87;24.23;;;8.70;99.90;;;;;;4996502;28;20026;-70
2022/02/02 23:31:17;;;;;;;55.13;27.47;;;8.70;99.90;;;;;;5014063;28;20528;-70
2022/02/02 23:33:45;;;;;;;58.13;26.73;;;8.70;99.90;;;;;;5013864;28;20103;-70
2022/02/02 23:36:12;;;;;;;57.03;25.63;;;8.70;99.90;;;;;;5014017;28;20493;-70
2022/02/02 23:38:38;;;;;;;59.33;27.53;;;8.70;99.90;;;;;;5013934;28;20022;-70
2022/02/02 23:43:31;;;;;;;50.07;25.33;;;8.80;99.90;;;;;;5013800;28;20110;-70
2022/02/02 23:46:09;;;;;;;52.57;24.90;;;8.80;99.90;;;;;;5013787;28;20026;-70
2022/02/02 23:48:42;;;;;;;55.63;25.30;;;8.80;99.90;;;;;;5013533;28;20033;-70
2022/02/02 23:51:29;;;;;;;62.47;27.93;;;8.80;99.90;;;;;;5039476;22;20141;-68
2022/02/02 23:54:02;;;;;;;56.20;25.33;;;8.80;99.90;;;;;;5053697;28;20535;-67
2022/02/02 23:59:23;;;;;;;54.47;26.87;;;8.90;99.90;;;;;;5052568;28;20366;-67
